Henry Post Army Air Field (Fort Sill)


Codes: KFSI/FSI
Name: Henry Post Army Air Field (Fort Sill)
City: Fort Sill
Country: United States
Elevation: 1189 ft.
Website:
Wikipedia:

Photos at Henry Post Army Air Field (Fort Sill)


   Photos courtesy of SpottingLog. You can add your own sightings and photos by signing up for a free trial today.



No photos found.

Weather at Henry Post Army Air Field (Fort Sill)


Time (UTC)DescriptionTempratureWindCloud coverageVisibilityPressureHumidity
26-Jun-2024 00:00Scattered Clouds37°C16 mph, S28%10000m1009hPa36%
26-Jun-2024 03:00Light Rain31°C9 mph, SE71%10000m1009hPa60%
26-Jun-2024 06:00Scattered Clouds25°C9 mph, E47%10000m1010hPa82%
26-Jun-2024 09:00Clear Sky25°C9 mph, S0%10000m1008hPa80%
26-Jun-2024 12:00Clear Sky26°C7 mph, S0%10000m1008hPa76%
26-Jun-2024 15:00Clear Sky34°C9 mph, W0%10000m1008hPa42%
26-Jun-2024 18:00Clear Sky38°C9 mph, NE0%10000m1008hPa32%
26-Jun-2024 21:00Clear Sky41°C11 mph, NE0%10000m1006hPa24%
27-Jun-2024 00:00Clear Sky39°C16 mph, E0%10000m1005hPa25%
27-Jun-2024 03:00Clear Sky31°C13 mph, NE0%10000m1007hPa57%
27-Jun-2024 06:00Few Clouds28°C13 mph, NE14%10000m1009hPa76%
27-Jun-2024 09:00Scattered Clouds26°C13 mph, NE30%10000m1008hPa83%
27-Jun-2024 12:00Broken Clouds25°C11 mph, E66%10000m1009hPa89%
27-Jun-2024 15:00Scattered Clouds31°C11 mph, SE48%10000m1008hPa58%
27-Jun-2024 18:00Scattered Clouds37°C16 mph, SE30%10000m1006hPa38%
27-Jun-2024 21:00Clear Sky41°C13 mph, SE1%10000m1003hPa24%
28-Jun-2024 00:00Clear Sky39°C20 mph, SE10%10000m1000hPa26%
28-Jun-2024 03:00Few Clouds33°C20 mph, SE24%10000m1003hPa44%
28-Jun-2024 06:00Broken Clouds31°C20 mph, S62%10000m1003hPa50%
28-Jun-2024 09:00Overcast Clouds29°C16 mph, S100%10000m1003hPa52%
28-Jun-2024 12:00Overcast Clouds28°C18 mph, S100%10000m1004hPa56%
28-Jun-2024 15:00Overcast Clouds33°C20 mph, SW88%10000m1005hPa45%
28-Jun-2024 18:00Broken Clouds38°C20 mph, SW81%10000m1003hPa32%
28-Jun-2024 21:00Broken Clouds41°C18 mph, S59%10000m1002hPa23%
29-Jun-2024 00:00Broken Clouds39°C18 mph, S57%10000m1001hPa23%
29-Jun-2024 03:00Few Clouds32°C20 mph, S23%10000m1003hPa42%
29-Jun-2024 06:00Scattered Clouds30°C18 mph, S41%10000m1006hPa52%
29-Jun-2024 09:00Few Clouds28°C16 mph, S20%10000m1009hPa62%
29-Jun-2024 12:00Scattered Clouds27°C11 mph, S42%10000m1012hPa73%
29-Jun-2024 15:00Clear Sky32°C13 mph, S0%10000m1013hPa58%
29-Jun-2024 18:00Few Clouds36°C9 mph, S24%10000m1013hPa42%
29-Jun-2024 21:00Light Rain35°C7 mph, SE86%10000m1013hPa42%
30-Jun-2024 00:00Light Rain37°C16 mph, SE84%10000m1012hPa35%
30-Jun-2024 03:00Overcast Clouds32°C9 mph, SE100%10000m1015hPa45%
30-Jun-2024 06:00Overcast Clouds28°C4 mph, NE100%10000m1017hPa63%
30-Jun-2024 09:00Overcast Clouds27°C4 mph, NE100%10000m1017hPa67%
30-Jun-2024 12:00Overcast Clouds27°C7 mph, S100%10000m1018hPa61%
30-Jun-2024 15:00Overcast Clouds32°C9 mph, SW100%10000m1019hPa49%
30-Jun-2024 18:00Overcast Clouds36°C9 mph, S100%10000m1018hPa36%
30-Jun-2024 21:00Overcast Clouds38°C13 mph, SE99%10000m1015hPa29%